createdAt,value
2023-09-02T00:03:42.350Z,100950.19
2023-09-02T00:06:10.912Z,100935.93
2023-09-02T00:08:39.346Z,100925.99
2023-09-02T00:11:07.845Z,100918.66
2023-09-02T00:13:36.088Z,100919.04
2023-09-02T00:16:04.636Z,100915.84
2023-09-02T00:18:33.126Z,100915.89
2023-09-02T00:21:01.492Z,100912.00
2023-09-02T00:23:29.891Z,100912.64
2023-09-02T00:25:59.068Z,100908.00
2023-09-02T00:28:27.576Z,100906.61
2023-09-02T00:30:55.880Z,100905.48
2023-09-02T00:33:24.316Z,100907.36
2023-09-02T00:35:53.138Z,100912.00
2023-09-02T00:38:21.503Z,100915.94
2023-09-02T00:41:00.573Z,100919.51
2023-09-02T00:43:30.655Z,100911.91
2023-09-02T00:45:59.896Z,100903.36
2023-09-02T00:48:28.453Z,100891.36
2023-09-02T00:50:57.276Z,100884.86
2023-09-02T00:53:25.655Z,100875.31
2023-09-02T00:55:54.599Z,100877.36
2023-09-02T00:58:23.211Z,100883.86
2023-09-02T01:00:53.020Z,100889.15
2023-09-02T01:03:21.567Z,100885.90
2023-09-02T01:05:51.608Z,100877.79
2023-09-02T01:08:20.050Z,100873.42
2023-09-02T01:10:49.312Z,100887.17
2023-09-02T01:13:17.859Z,100918.20
2023-09-02T01:15:46.921Z,100930.95
2023-09-02T01:18:15.594Z,100922.39
2023-09-02T01:21:11.042Z,100916.02
2023-09-02T01:24:25.327Z,100920.79
2023-09-02T01:27:20.865Z,100925.48
2023-09-02T01:30:02.862Z,100932.89
2023-09-02T01:32:37.624Z,100938.66
2023-09-02T01:35:08.018Z,100934.36
2023-09-02T01:37:41.145Z,100931.33
2023-09-02T01:40:16.587Z,100932.44
2023-09-02T01:42:45.326Z,100933.34
2023-09-02T01:45:14.427Z,100927.94
2023-09-02T01:47:43.384Z,100928.14
2023-09-02T01:50:14.360Z,100925.85
2023-09-02T01:52:43.512Z,100920.73
2023-09-02T01:55:12.524Z,100911.97
2023-09-02T01:57:42.575Z,100912.73
2023-09-02T02:00:11.558Z,100921.23
2023-09-02T02:02:41.396Z,100930.10
2023-09-02T02:05:14.399Z,100935.71
2023-09-02T02:07:46.355Z,100935.00
2023-09-02T02:10:21.422Z,100929.46
2023-09-02T02:12:50.227Z,100927.74
2023-09-02T02:15:18.545Z,100924.71
2023-09-02T02:17:46.935Z,100920.23
2023-09-02T02:20:16.395Z,100918.30
2023-09-02T02:22:44.703Z,100916.89
2023-09-02T02:25:12.988Z,100903.77
2023-09-02T02:27:42.151Z,100896.76
2023-09-02T02:30:11.257Z,100895.49
2023-09-02T02:32:39.569Z,100887.67
2023-09-02T02:35:08.736Z,100883.20
2023-09-02T02:37:36.995Z,100876.36
2023-09-02T02:40:06.601Z,100866.07
2023-09-02T02:42:35.090Z,100862.23
2023-09-02T02:45:03.397Z,100862.22
2023-09-02T02:47:31.851Z,100860.55
2023-09-02T02:50:00.406Z,100855.49
2023-09-02T02:52:29.491Z,100856.02
2023-09-02T02:54:58.326Z,100863.77
2023-09-02T02:57:27.168Z,100863.23
2023-09-02T02:59:55.503Z,100863.08
2023-09-02T03:02:24.704Z,100859.31
2023-09-02T03:04:53.627Z,100854.42
2023-09-02T03:07:22.685Z,100857.10
2023-09-02T03:09:51.284Z,100856.70
2023-09-02T03:12:19.733Z,100855.58
2023-09-02T03:14:48.114Z,100856.27
2023-09-02T03:17:16.791Z,100860.58
2023-09-02T03:19:45.603Z,100864.92
2023-09-02T03:22:14.805Z,100869.25
2023-09-02T03:24:43.107Z,100868.86
2023-09-02T03:27:11.858Z,100873.56
2023-09-02T03:29:40.226Z,100868.94
2023-09-02T03:32:08.669Z,100870.84
2023-09-02T03:34:37.024Z,100867.48
2023-09-02T03:37:05.275Z,100864.89
2023-09-02T03:39:33.746Z,100866.80
2023-09-02T03:42:02.527Z,100862.73
2023-09-02T03:44:30.821Z,100859.20
2023-09-02T03:46:59.228Z,100852.73
2023-09-02T03:49:27.799Z,100845.38
2023-09-02T03:51:56.122Z,100845.98
2023-09-02T03:54:24.500Z,100847.27
2023-09-02T03:56:53.056Z,100847.27
2023-09-02T03:59:22.469Z,100844.20
2023-09-02T04:01:50.922Z,100841.14
2023-09-02T04:04:19.732Z,100834.99
2023-09-02T04:06:48.065Z,100831.20
2023-09-02T04:09:16.552Z,100823.03
2023-09-02T04:11:44.888Z,100815.66
2023-09-02T04:14:13.160Z,100812.04
2023-09-02T04:16:41.464Z,100811.62
2023-09-02T04:19:10.073Z,100814.11
2023-09-02T04:21:38.608Z,100818.80
2023-09-02T04:24:07.313Z,100826.55
2023-09-02T04:26:35.894Z,100831.22
2023-09-02T04:29:04.170Z,100826.16
2023-09-02T04:31:32.698Z,100826.52
2023-09-02T04:34:01.275Z,100830.29
2023-09-02T04:36:30.210Z,100839.05
2023-09-02T04:38:58.480Z,100844.82
2023-09-02T04:41:26.721Z,100848.75
2023-09-02T04:43:55.002Z,100859.20
2023-09-02T04:46:23.411Z,100863.77
2023-09-02T04:48:51.804Z,100855.11
2023-09-02T04:51:20.115Z,100847.04
2023-09-02T04:53:48.451Z,100846.39
2023-09-02T04:56:17.216Z,100845.02
2023-09-02T04:58:45.476Z,100843.59
2023-09-02T05:01:14.896Z,100846.14
2023-09-02T05:03:44.499Z,100853.02
2023-09-02T05:06:12.886Z,100857.78
2023-09-02T05:08:41.327Z,100862.30
2023-09-02T05:11:10.457Z,100881.62
2023-09-02T05:13:38.874Z,100890.27
2023-09-02T05:16:07.224Z,100880.71
2023-09-02T05:18:35.803Z,100879.45
2023-09-02T05:21:04.216Z,100873.14
2023-09-02T05:23:33.935Z,100880.37
2023-09-02T05:26:02.701Z,100876.20
2023-09-02T05:28:31.063Z,100878.91
2023-09-02T05:30:59.458Z,100880.89
2023-09-02T05:33:27.881Z,100878.51
2023-09-02T05:35:56.254Z,100887.52
2023-09-02T05:38:24.594Z,100901.39
2023-09-02T05:40:53.114Z,100903.91
2023-09-02T05:43:21.617Z,100904.09
2023-09-02T05:45:49.984Z,100912.88
2023-09-02T05:48:19.131Z,100920.46
2023-09-02T05:50:47.426Z,100931.46
2023-09-02T05:53:15.769Z,100944.09
2023-09-02T05:55:53.180Z,100955.39
2023-09-02T05:58:23.785Z,100965.66
2023-09-02T06:00:52.145Z,100969.95
2023-09-02T06:03:21.334Z,100968.13
2023-09-02T06:05:50.643Z,100976.04
2023-09-02T06:08:18.904Z,100983.23
2023-09-02T06:10:57.838Z,100986.61
2023-09-02T06:13:26.826Z,100986.75
2023-09-02T06:16:01.803Z,100984.71
2023-09-02T06:18:31.446Z,100977.33
2023-09-02T06:21:00.420Z,100974.58
2023-09-02T06:23:28.917Z,100967.67
2023-09-02T06:26:02.279Z,100955.54
2023-09-02T06:28:31.672Z,100947.20
2023-09-02T06:30:59.940Z,100951.49
2023-09-02T06:33:28.300Z,100952.58
2023-09-02T06:35:56.669Z,100965.75
2023-09-02T06:38:25.078Z,100978.06
2023-09-02T06:40:53.398Z,100987.28
2023-09-02T06:43:22.365Z,100988.19
2023-09-02T06:45:50.648Z,100988.70
2023-09-02T06:48:18.908Z,100983.80
2023-09-02T06:50:47.487Z,100983.91
2023-09-02T06:53:16.144Z,100986.20
2023-09-02T06:55:44.993Z,101003.12
2023-09-02T06:58:13.748Z,101005.08
2023-09-02T07:00:42.505Z,100989.17
2023-09-02T07:03:11.200Z,100985.32
2023-09-02T07:05:40.411Z,100976.80
2023-09-02T07:08:09.333Z,100972.83
2023-09-02T07:10:37.647Z,101006.84
2023-09-02T07:13:06.154Z,100994.35
2023-09-02T07:15:35.023Z,100994.98
2023-09-02T07:18:05.678Z,101015.52
2023-09-02T07:20:37.292Z,101025.52
2023-09-02T07:23:05.914Z,101021.94
2023-09-02T07:25:34.214Z,101018.00
2023-09-02T07:28:02.580Z,101028.27
2023-09-02T07:30:30.865Z,101046.34
2023-09-02T07:32:59.187Z,101038.63
2023-09-02T07:35:27.940Z,101034.38
2023-09-02T07:37:56.396Z,101042.17
2023-09-02T07:40:24.754Z,101034.37
2023-09-02T07:42:53.123Z,101036.05
2023-09-02T07:45:21.431Z,101031.30
2023-09-02T07:47:50.491Z,101035.95
2023-09-02T07:50:19.744Z,101033.33
2023-09-02T07:52:49.730Z,101038.00
2023-09-02T07:55:19.154Z,101041.36
2023-09-02T07:57:47.735Z,101045.04
2023-09-02T08:00:16.179Z,101048.95
2023-09-02T08:02:44.574Z,101056.73
2023-09-02T08:05:13.932Z,101056.04
2023-09-02T08:07:42.240Z,101059.55
2023-09-02T08:10:11.197Z,101063.02
2023-09-02T08:12:41.360Z,101065.95
2023-09-02T08:15:12.568Z,101072.23
2023-09-02T08:17:44.505Z,101078.98
2023-09-02T08:20:13.425Z,101086.33
2023-09-02T08:22:41.728Z,101088.45
2023-09-02T08:25:11.383Z,101093.58
2023-09-02T08:27:39.800Z,101092.30
2023-09-02T08:30:09.220Z,101090.86
2023-09-02T08:32:37.702Z,101086.02
2023-09-02T08:35:08.169Z,101078.64
2023-09-02T08:37:37.127Z,101074.21
2023-09-02T08:40:07.032Z,101070.20
2023-09-02T08:42:36.162Z,101063.34
2023-09-02T08:45:09.581Z,101060.27
2023-09-02T08:47:41.328Z,101058.09
2023-09-02T08:50:11.824Z,101069.20
2023-09-02T08:52:41.581Z,101083.88
2023-09-02T08:55:12.986Z,101088.30
2023-09-02T08:57:43.948Z,101088.38
2023-09-02T09:00:13.183Z,101088.48
2023-09-02T09:02:44.430Z,101090.04
2023-09-02T09:05:14.182Z,101089.04
2023-09-02T09:07:43.155Z,101081.61
2023-09-02T09:10:15.715Z,101073.48
2023-09-02T09:12:44.774Z,101051.82
2023-09-02T09:15:17.422Z,101046.38
2023-09-02T09:17:46.643Z,101036.05
2023-09-02T09:20:16.689Z,101024.46
2023-09-02T09:22:45.600Z,101013.98
2023-09-02T09:25:14.954Z,101002.27
2023-09-02T09:27:43.564Z,100990.70
2023-09-02T09:30:30.970Z,100977.74
2023-09-02T09:33:20.396Z,100982.24
2023-09-02T09:35:49.080Z,101005.16
2023-09-02T09:38:17.403Z,101016.52
2023-09-02T09:40:45.712Z,101017.00
2023-09-02T09:43:19.070Z,101008.40
2023-09-02T09:45:52.922Z,100995.34
2023-09-02T09:48:23.518Z,100991.58
2023-09-02T09:50:53.289Z,100991.69
2023-09-02T09:53:21.954Z,100993.81
2023-09-02T09:55:51.295Z,100999.98
2023-09-02T09:58:25.862Z,101010.31
2023-09-02T10:00:54.179Z,101017.38
2023-09-02T10:03:30.903Z,101019.87
2023-09-02T10:06:00.549Z,101014.59
2023-09-02T10:08:29.355Z,101011.65
2023-09-02T10:10:57.829Z,101006.95
2023-09-02T10:13:26.763Z,101007.98
2023-09-02T10:15:55.493Z,101004.36
2023-09-02T10:18:27.502Z,101000.80
2023-09-02T10:20:56.573Z,101006.15
2023-09-02T10:23:24.939Z,101008.40
2023-09-02T10:26:09.736Z,100994.66
2023-09-02T10:28:39.772Z,100998.38
2023-09-02T10:31:21.872Z,100997.55
2023-09-02T10:33:53.549Z,100996.83
2023-09-02T10:36:24.516Z,100998.11
2023-09-02T10:38:53.890Z,100994.98
2023-09-02T10:41:26.109Z,100998.17
2023-09-02T10:43:56.702Z,100994.80
2023-09-02T10:46:26.659Z,100987.05
2023-09-02T10:48:55.550Z,100965.27
2023-09-02T10:51:24.506Z,100949.55
2023-09-02T10:54:01.748Z,100942.17
2023-09-02T10:56:35.899Z,100935.35
2023-09-02T10:59:06.589Z,100947.36
2023-09-02T11:01:51.189Z,100942.46
2023-09-02T11:04:57.116Z,100922.92
2023-09-02T11:07:28.517Z,100918.70
2023-09-02T11:10:02.066Z,100921.23
2023-09-02T11:12:30.624Z,100924.95
2023-09-02T11:15:11.317Z,100900.80
2023-09-02T11:17:42.047Z,100883.71
2023-09-02T11:20:13.102Z,100897.29
2023-09-02T11:22:54.600Z,100926.36
2023-09-02T11:25:42.436Z,100930.55
2023-09-02T11:28:27.871Z,100919.91
2023-09-02T11:31:04.138Z,100925.31
2023-09-02T11:33:35.149Z,100969.74
2023-09-02T11:36:18.200Z,100985.47
2023-09-02T11:38:47.088Z,100975.71
2023-09-02T11:41:27.241Z,100978.02
2023-09-02T11:43:56.178Z,100997.48
2023-09-02T11:46:24.618Z,100975.85
2023-09-02T11:48:53.198Z,100945.34
2023-09-02T11:51:21.555Z,100959.62
2023-09-02T11:53:56.248Z,100977.30
2023-09-02T11:56:24.909Z,100972.96
2023-09-02T11:58:53.184Z,100975.56
2023-09-02T12:01:22.497Z,100984.90
2023-09-02T12:03:50.868Z,100977.27
2023-09-02T12:06:19.546Z,100971.96
2023-09-02T12:08:48.036Z,100974.73
2023-09-02T12:11:17.470Z,100972.02
2023-09-02T12:13:45.983Z,100956.48
2023-09-02T12:16:20.180Z,100945.35
2023-09-02T12:18:50.836Z,100943.58
2023-09-02T12:21:19.680Z,100942.05
2023-09-02T12:23:48.114Z,100942.54
2023-09-02T12:26:17.045Z,100942.89
2023-09-02T12:28:49.289Z,100942.67
2023-09-02T12:31:18.705Z,100937.18
2023-09-02T12:33:53.625Z,100931.35
2023-09-02T12:36:22.117Z,100927.54
2023-09-02T12:38:54.498Z,100920.37
2023-09-02T12:41:22.945Z,100908.71
2023-09-02T12:43:51.264Z,100899.92
2023-09-02T12:46:22.013Z,100896.06
2023-09-02T12:48:51.154Z,100897.41
2023-09-02T12:51:24.024Z,100889.33
2023-09-02T12:53:52.387Z,100880.63
2023-09-02T12:56:20.889Z,100883.41
2023-09-02T12:58:50.373Z,100883.16
2023-09-02T13:01:18.676Z,100880.58
2023-09-02T13:03:47.140Z,100887.46
2023-09-02T13:06:16.067Z,100885.30
2023-09-02T13:08:44.723Z,100889.42
2023-09-02T13:11:13.133Z,100879.34
2023-09-02T13:13:42.425Z,100877.81
2023-09-02T13:16:11.119Z,100872.13
2023-09-02T13:18:39.608Z,100872.74
2023-09-02T13:21:08.343Z,100876.52
2023-09-02T13:23:37.104Z,100868.77
2023-09-02T13:26:14.157Z,100859.09
2023-09-02T13:28:42.340Z,100860.36
2023-09-02T13:31:10.755Z,100866.65
2023-09-02T13:33:43.479Z,100866.38
2023-09-02T13:36:13.688Z,100851.88
2023-09-02T13:38:42.246Z,100849.86
2023-09-02T13:41:11.151Z,100854.84
2023-09-02T13:43:40.595Z,100852.69
2023-09-02T13:46:08.976Z,100849.64
2023-09-02T13:48:37.891Z,100848.30
2023-09-02T13:51:06.557Z,100841.30
2023-09-02T13:53:35.217Z,100826.84
2023-09-02T13:56:03.678Z,100822.78
2023-09-02T13:58:35.942Z,100833.92
2023-09-02T14:01:05.207Z,100835.64
2023-09-02T14:03:34.059Z,100830.27
2023-09-02T14:06:04.668Z,100830.61
2023-09-02T14:08:38.383Z,100840.30
2023-09-02T14:11:08.460Z,100849.17
2023-09-02T14:13:42.000Z,100854.30
2023-09-02T14:16:10.865Z,100861.47
2023-09-02T14:18:39.912Z,100852.80
2023-09-02T14:21:08.989Z,100856.86
2023-09-02T14:23:37.309Z,100869.79
2023-09-02T14:26:05.613Z,100869.81
2023-09-02T14:28:34.003Z,100860.33
2023-09-02T14:31:02.874Z,100846.21
2023-09-02T14:33:31.598Z,100842.56
2023-09-02T14:36:00.003Z,100840.52
2023-09-02T14:38:28.388Z,100846.26
2023-09-02T14:40:56.977Z,100849.56
2023-09-02T14:43:25.486Z,100857.53
2023-09-02T14:45:54.162Z,100854.52
2023-09-02T14:48:25.384Z,100855.73
2023-09-02T14:50:54.340Z,100862.38
2023-09-02T14:53:23.305Z,100862.80
2023-09-02T14:55:53.184Z,100861.62
2023-09-02T14:58:21.760Z,100860.52
2023-09-02T15:00:55.633Z,100854.92
2023-09-02T15:03:27.688Z,100845.13
2023-09-02T15:05:56.960Z,100832.65
2023-09-02T15:08:25.605Z,100833.41
2023-09-02T15:10:54.064Z,100828.71
2023-09-02T15:13:22.589Z,100833.44
2023-09-02T15:15:50.935Z,100827.90
2023-09-02T15:18:26.695Z,100822.09
2023-09-02T15:20:56.257Z,100820.05
2023-09-02T15:23:24.498Z,100823.33
2023-09-02T15:26:01.648Z,100823.77
2023-09-02T15:28:30.429Z,100825.27
2023-09-02T15:31:03.709Z,100834.78
2023-09-02T15:33:32.620Z,100836.70
2023-09-02T15:36:06.143Z,100842.19
2023-09-02T15:38:34.418Z,100841.52
2023-09-02T15:41:03.621Z,100850.57
2023-09-02T15:43:38.565Z,100859.98
2023-09-02T15:46:07.564Z,100866.98
2023-09-02T15:48:35.960Z,100874.45
2023-09-02T15:51:04.296Z,100890.71
2023-09-02T15:53:33.957Z,100896.81
2023-09-02T15:56:02.375Z,100895.25
2023-09-02T15:58:31.009Z,100894.50
2023-09-02T16:00:59.508Z,100894.66
2023-09-02T16:03:28.564Z,100892.06
2023-09-02T16:05:57.086Z,100889.71
2023-09-02T16:08:25.352Z,100888.35
2023-09-02T16:10:55.955Z,100888.31
2023-09-02T16:13:25.170Z,100889.25
2023-09-02T16:15:53.763Z,100885.90
2023-09-02T16:18:22.174Z,100884.80
2023-09-02T16:20:50.909Z,100876.27
2023-09-02T16:23:19.809Z,100869.73
2023-09-02T16:25:48.784Z,100850.98
2023-09-02T16:28:17.398Z,100844.70
2023-09-02T16:30:46.250Z,100849.05
2023-09-02T16:33:14.762Z,100851.64
2023-09-02T16:35:43.258Z,100838.30
2023-09-02T16:38:13.607Z,100834.00
2023-09-02T16:40:41.907Z,100828.89
2023-09-02T16:43:11.268Z,100830.98
2023-09-02T16:45:39.785Z,100822.22
2023-09-02T16:48:15.849Z,100814.94
2023-09-02T16:50:47.388Z,100809.84
2023-09-02T16:53:17.998Z,100817.42
2023-09-02T16:55:48.737Z,100816.81
2023-09-02T16:58:20.937Z,100810.71
2023-09-02T17:00:49.651Z,100809.48
2023-09-02T17:03:19.588Z,100803.52
2023-09-02T17:05:48.619Z,100799.40
2023-09-02T17:08:23.391Z,100791.88
2023-09-02T17:10:52.132Z,100789.58
2023-09-02T17:13:20.891Z,100784.05
2023-09-02T17:15:49.705Z,100780.70
2023-09-02T17:18:18.500Z,100780.57
2023-09-02T17:20:47.300Z,100778.44
2023-09-02T17:23:18.947Z,100775.96
2023-09-02T17:25:48.484Z,100771.98
2023-09-02T17:28:20.754Z,100766.73
2023-09-02T17:31:02.683Z,100764.63
2023-09-02T17:33:34.231Z,100772.27
2023-09-02T17:36:02.881Z,100782.65
2023-09-02T17:38:31.268Z,100788.33
2023-09-02T17:40:59.820Z,100791.45
2023-09-02T17:43:28.181Z,100796.92
2023-09-02T17:45:56.470Z,100803.48
2023-09-02T17:48:24.990Z,100809.88
2023-09-02T17:50:53.534Z,100822.57
2023-09-02T17:53:21.849Z,100831.83
2023-09-02T17:55:50.307Z,100846.13
2023-09-02T17:58:18.859Z,100846.97
2023-09-02T18:00:47.572Z,100851.64
2023-09-02T18:03:16.625Z,100849.89
2023-09-02T18:05:46.073Z,100853.54
2023-09-02T18:08:15.573Z,100859.17
2023-09-02T18:10:44.184Z,100866.10
2023-09-02T18:13:13.087Z,100858.55
2023-09-02T18:15:41.882Z,100853.86
2023-09-02T18:18:10.647Z,100854.62
2023-09-02T18:20:39.195Z,100857.17
2023-09-02T18:23:07.499Z,100865.48
2023-09-02T18:25:35.905Z,100874.20
2023-09-02T18:28:04.753Z,100878.60
2023-09-02T18:30:33.102Z,100875.22
2023-09-02T18:33:01.535Z,100871.69
2023-09-02T18:35:29.889Z,100876.98
2023-09-02T18:37:58.153Z,100873.44
2023-09-02T18:40:26.703Z,100867.48
2023-09-02T18:42:54.963Z,100870.22
2023-09-02T18:45:23.274Z,100872.79
2023-09-02T18:47:51.720Z,100877.85
2023-09-02T18:50:20.017Z,100880.92
2023-09-02T18:52:48.430Z,100883.88
2023-09-02T18:55:16.903Z,100883.77
2023-09-02T18:57:45.157Z,100885.05
2023-09-02T19:00:14.981Z,100884.19
2023-09-02T19:02:43.530Z,100882.30
2023-09-02T19:05:12.775Z,100885.20
2023-09-02T19:07:41.046Z,100886.48
2023-09-02T19:10:10.329Z,100883.41
2023-09-02T19:12:38.867Z,100882.38
2023-09-02T19:15:07.757Z,100888.01
2023-09-02T19:17:36.205Z,100883.13
2023-09-02T19:20:06.050Z,100878.61
2023-09-02T19:22:45.747Z,100880.24
2023-09-02T19:25:16.755Z,100883.60
2023-09-02T19:27:47.423Z,100884.27
2023-09-02T19:30:15.702Z,100884.98
2023-09-02T19:32:44.640Z,100884.75
2023-09-02T19:35:13.067Z,100881.17
2023-09-02T19:37:46.493Z,100881.03
2023-09-02T19:40:17.603Z,100871.52
2023-09-02T19:42:55.113Z,100856.95
2023-09-02T19:45:25.265Z,100841.33
2023-09-02T19:47:53.738Z,100826.14
2023-09-02T19:50:23.821Z,100826.30
2023-09-02T19:52:52.497Z,100822.87
2023-09-02T19:55:20.782Z,100819.95
2023-09-02T19:57:49.147Z,100819.48
2023-09-02T20:00:17.740Z,100815.24
2023-09-02T20:02:46.793Z,100807.72
2023-09-02T20:05:15.718Z,100805.60
2023-09-02T20:07:44.343Z,100816.11
2023-09-02T20:10:12.653Z,100814.53
2023-09-02T20:12:40.903Z,100819.48
2023-09-02T20:15:09.795Z,100824.05
2023-09-02T20:17:38.921Z,100837.79
2023-09-02T20:20:08.304Z,100852.45
2023-09-02T20:22:37.246Z,100857.32
2023-09-02T20:25:05.665Z,100867.77
2023-09-02T20:27:34.011Z,100874.98
2023-09-02T20:30:03.175Z,100876.42
2023-09-02T20:32:31.974Z,100879.86
2023-09-02T20:35:00.223Z,100883.63
2023-09-02T20:37:28.680Z,100890.86
2023-09-02T20:39:57.519Z,100901.00
2023-09-02T20:42:25.950Z,100912.39
2023-09-02T20:44:54.460Z,100924.13
2023-09-02T20:47:22.912Z,100937.64
2023-09-02T20:49:51.724Z,100942.16
2023-09-02T20:52:22.014Z,100943.77
2023-09-02T20:54:55.874Z,100945.41
2023-09-02T20:57:24.832Z,100961.67
2023-09-02T20:59:54.694Z,100975.75
2023-09-02T21:02:23.441Z,100990.32
2023-09-02T21:04:51.985Z,101003.77
2023-09-02T21:07:20.279Z,101017.08
2023-09-02T21:09:48.801Z,101030.94
2023-09-02T21:12:17.803Z,101032.52
2023-09-02T21:14:46.212Z,101028.83
2023-09-02T21:17:14.429Z,101020.92
2023-09-02T21:19:43.052Z,101017.23
2023-09-02T21:22:11.808Z,101002.30
2023-09-02T21:24:40.259Z,100992.77
2023-09-02T21:27:08.896Z,100987.56
2023-09-02T21:29:37.277Z,100995.21
2023-09-02T21:32:05.708Z,101004.86
2023-09-02T21:34:34.063Z,101025.52
2023-09-02T21:37:02.769Z,101031.45
2023-09-02T21:39:33.848Z,101032.48
2023-09-02T21:42:02.188Z,101036.23
2023-09-02T21:44:30.526Z,101049.81
2023-09-02T21:46:58.885Z,101054.42
2023-09-02T21:49:27.139Z,101054.00
2023-09-02T21:51:55.529Z,101052.19
2023-09-02T21:54:23.998Z,101054.27
2023-09-02T21:56:52.230Z,101051.73
2023-09-02T21:59:20.588Z,101058.64
2023-09-02T22:01:49.205Z,101065.62
2023-09-02T22:04:17.718Z,101071.85
2023-09-02T22:06:46.150Z,101074.48
2023-09-02T22:09:14.739Z,101076.88
2023-09-02T22:11:43.023Z,101078.36
2023-09-02T22:14:11.453Z,101073.00
2023-09-02T22:16:40.765Z,101074.41
2023-09-02T22:19:10.309Z,101080.20
2023-09-02T22:21:39.442Z,101092.02
2023-09-02T22:24:09.209Z,101098.47
2023-09-02T22:26:37.428Z,101094.05
2023-09-02T22:29:06.368Z,101087.39
2023-09-02T22:31:35.037Z,101093.85
2023-09-02T22:34:03.519Z,101098.86
2023-09-02T22:36:31.840Z,101102.48
2023-09-02T22:39:00.763Z,101096.30
2023-09-02T22:41:29.293Z,101098.03
2023-09-02T22:43:57.553Z,101097.31
2023-09-02T22:46:25.815Z,101092.67
2023-09-02T22:48:54.460Z,101088.55
2023-09-02T22:51:22.906Z,101085.36
2023-09-02T22:53:51.284Z,101084.52
2023-09-02T22:56:19.726Z,101091.38
2023-09-02T22:58:48.201Z,101093.80
2023-09-02T23:01:16.892Z,101098.24
2023-09-02T23:03:45.449Z,101111.09
2023-09-02T23:06:14.629Z,101125.21
2023-09-02T23:08:45.117Z,101136.53
2023-09-02T23:11:13.962Z,101138.52
2023-09-02T23:13:42.361Z,101129.48
2023-09-02T23:16:10.970Z,101124.80
2023-09-02T23:18:39.346Z,101124.98
2023-09-02T23:21:12.803Z,101134.17
2023-09-02T23:23:41.275Z,101147.66
2023-09-02T23:26:10.117Z,101141.38
2023-09-02T23:28:40.435Z,101135.67
2023-09-02T23:31:09.299Z,101140.44
2023-09-02T23:33:37.752Z,101145.95
2023-09-02T23:36:06.707Z,101144.87
2023-09-02T23:38:35.006Z,101147.31
2023-09-02T23:41:03.280Z,101148.98
2023-09-02T23:43:31.969Z,101159.82
2023-09-02T23:46:00.904Z,101164.77
2023-09-02T23:48:29.673Z,101170.41
2023-09-02T23:50:59.752Z,101176.34
2023-09-02T23:53:28.364Z,101171.48
2023-09-02T23:55:57.766Z,101168.08
2023-09-02T23:58:26.641Z,101167.00
